Archival Weather

Yakutsk

Yakutsk, Russia (UEEE)

Report from: Monday, February 6, 2023 10:00 AM JST
Current time: Thursday, April 25, 2024 4:31 AM JST

Current weather – Weather history – Daily summaries
Weather forecast

Present weatherMist
Temperature-42.0°C (-43.6°F)
Dew point-45.0°C (-49.0°F)
Winds 1.9 kts (1 m/s, 2.2 mph) West-Northwest (300°)
Visibility3280.8 ft. (1 km)
Altimeter30.24 in.Hg (1024 mB)
Precip. events QF 12:39 PM
Relative humidity72 %
Density altitude-8,089 ft. (-2,465 m)
Remarks No significant changes expected in the next two hours
Flight conditions Low Instrument Meteorological Conditions
Raw dataUEEE 060100Z 30001MPS 1000 R23L/1000U BR NSC M42/M45 Q1024 R23L/490150 NOSIG RMK QFE759
An error has occurred. This application may no longer respond until reloaded. Reload 🗙